Terminal Aerodrome Forecast
Issued by NWS

Home | Current Version | Previous Version | Text Only | Print | Product List | Glossary On
Versions: 1 2 3 4 5 6 7 8 9 10 11 12 13 14 15 16 17 18
000
FTAK31 PAJN 301700
TAFAPG
TAF
PAPG 301739Z 3018/3118 VRB03KT 6SM BR BKN008
      TEMPO 3018/3020 3SM BR OVC005
     FM302000 VRB03KT P6SM BKN015
     FM302200 VRB04KT P6SM SCT020
     FM310300 VRB02KT P6SM VCFG FEW002
     FM310500 00000KT 1/2SM FG VV002
      AMD LTD TO CLD VIS AND WIND 3106/3115=

USA.gov is the U.S. government's official web portal to all federal, state and local government web resources and services.